Terminal Aerodrome Forecast
Issued by NWS

Current Version | Previous Version | Graphics & Text | Print | Product List | Glossary On
Versions: 1 2 3 4 5 6 7 8 9 10 11 12 13 14 15 16 17 18 19
295
FTUS41 KILN 181737
TAFLCK
TAF
KLCK 181737Z 1818/1918 19012G25KT P6SM VCSH OVC025 WS020/22055KT
     FM182000 20018G32KT P6SM -SHRA OVC018 WS020/22055KT
     FM182300 22018G34KT 2SM +SHRA BR VCTS OVC012CB WS020/22055KT
      TEMPO 1823/1824 1SM TSRA OVC008CB
     FM190200 29018G37KT 4SM -SHRA BR OVC012
     FM190600 30018G32KT P6SM OVC015
     FM190900 30015G25KT P6SM OVC018=

USA.gov is the U.S. government's official web portal to all federal, state and local government web resources and services.